Inmocean — ZCXX2 — position and weather

sailwx.info

Track history (hours):
 
Tides and Currents Weather Stations Pressure Air Temp Water Temp Dewpoint Dewpoint Depression Visibility Wind Speed Wind Dir Waves Ship Positions

Inmocean

Last reported at 2015-Aug-18 12:22 UTC. Time now 2015-Aug-31 02:32 UTC.
Position N 42°28' E 008°35'.
Warning: this ship's position is 12 days out of date.

Type: Sailing vessel. MMSI: 319120000.

Date/timePositionNaut miles runAvg speedWind from/ knotsBaromVisibWave heightAir tempDewpointWater temp
2015-Aug-18 12:22N 42°28' E 008°35'6 7.6
2015-Aug-18 11:33N 42°33' E 008°40'16 7.4
2015-Aug-18 09:28N 42°41' E 008°58'  
2015-Aug-14 12:28N 43°53' E 008°01'0 0.0
2015-Aug-14 11:25N 43°53' E 008°01'0 0.0
2015-Aug-14 09:22N 43°53' E 008°01'0 0.0
2015-Aug-14 08:22N 43°53' E 008°01'0 0.0
2015-Aug-14 07:25N 43°53' E 008°01'0 0.0
2015-Aug-14 02:22N 43°53' E 008°01'0 0.0
2015-Aug-14 01:16N 43°53' E 008°01'0 0.0
2015-Aug-14 00:28N 43°53' E 008°01'0 0.0
2015-Aug-13 23:22N 43°53' E 008°01'0 0.0
2015-Aug-13 21:10N 43°53' E 008°01'0 0.0
2015-Aug-13 19:04N 43°53' E 008°01'0 0.0
2015-Aug-13 18:31N 43°53' E 008°01'0 0.0
2015-Aug-13 17:31N 43°53' E 008°01'0 0.0
2015-Aug-13 15:04N 43°53' E 008°01'0 0.0
2015-Aug-13 13:22N 43°53' E 008°01'0 0.0
2015-Aug-13 12:31N 43°53' E 008°01'0 0.0
2015-Aug-13 11:31N 43°53' E 008°01'0 0.0
2015-Aug-13 10:28N 43°53' E 008°01'1 0.9
2015-Aug-13 09:26N 43°53' E 008°02'1 0.4
2015-Aug-13 07:07N 43°53' E 008°01'0 0.0
2015-Aug-13 06:31N 43°53' E 008°01'0 0.0
2015-Aug-13 05:31N 43°53' E 008°01'0 0.0
2015-Aug-13 04:28N 43°53' E 008°01'0 0.0
2015-Aug-13 03:22N 43°53' E 008°01'0 0.0
2015-Aug-13 02:28N 43°53' E 008°01'0 0.0
2015-Aug-13 01:31N 43°53' E 008°01'0 0.0
2015-Aug-13 00:31N 43°53' E 008°01'0 0.0
2015-Aug-12 23:31N 43°53' E 008°01'0 0.0
2015-Aug-12 22:31N 43°53' E 008°01'0 0.0
2015-Aug-12 16:13N 43°53' E 008°01'0 0.0
2015-Aug-12 15:31N 43°53' E 008°01'0 0.0
2015-Aug-11 13:31N 43°53' E 008°01'  
2015-Aug-08 17:31N 43°53' E 008°01'0 0.0
2015-Aug-08 16:31N 43°53' E 008°01'0 0.0
2015-Aug-08 13:31N 43°53' E 008°01'  
Track history (hours):
 
Tides and Currents Weather Stations Pressure Air Temp Water Temp Dewpoint Dewpoint Depression Visibility Wind Speed Wind Dir Waves Ship Positions

Inmocean

Last reported at 2015-Aug-18 12:22 UTC. Time now 2015-Aug-31 02:32 UTC.
Position N 42°28' E 008°35'.
Warning: this ship's position is 12 days out of date.

Type: Sailing vessel. MMSI: 319120000.

Date/timePositionNaut miles runAvg speedWind from/ knotsBaromVisibWave heightAir tempDewpointWater temp
2015-Aug-18 12:22N 42°28' E 008°35'6 7.6
2015-Aug-18 11:33N 42°33' E 008°40'16 7.4
2015-Aug-18 09:28N 42°41' E 008°58'  
2015-Aug-14 12:28N 43°53' E 008°01'0 0.0
2015-Aug-14 11:25N 43°53' E 008°01'0 0.0
2015-Aug-14 09:22N 43°53' E 008°01'0 0.0
2015-Aug-14 08:22N 43°53' E 008°01'0 0.0
2015-Aug-14 07:25N 43°53' E 008°01'0 0.0
2015-Aug-14 02:22N 43°53' E 008°01'0 0.0
2015-Aug-14 01:16N 43°53' E 008°01'0 0.0
2015-Aug-14 00:28N 43°53' E 008°01'0 0.0
2015-Aug-13 23:22N 43°53' E 008°01'0 0.0
2015-Aug-13 21:10N 43°53' E 008°01'0 0.0
2015-Aug-13 19:04N 43°53' E 008°01'0 0.0
2015-Aug-13 18:31N 43°53' E 008°01'0 0.0
2015-Aug-13 17:31N 43°53' E 008°01'0 0.0
2015-Aug-13 15:04N 43°53' E 008°01'0 0.0
2015-Aug-13 13:22N 43°53' E 008°01'0 0.0
2015-Aug-13 12:31N 43°53' E 008°01'0 0.0
2015-Aug-13 11:31N 43°53' E 008°01'0 0.0
2015-Aug-13 10:28N 43°53' E 008°01'1 0.9
2015-Aug-13 09:26N 43°53' E 008°02'1 0.4
2015-Aug-13 07:07N 43°53' E 008°01'0 0.0
2015-Aug-13 06:31N 43°53' E 008°01'0 0.0
2015-Aug-13 05:31N 43°53' E 008°01'0 0.0
2015-Aug-13 04:28N 43°53' E 008°01'0 0.0
2015-Aug-13 03:22N 43°53' E 008°01'0 0.0
2015-Aug-13 02:28N 43°53' E 008°01'0 0.0
2015-Aug-13 01:31N 43°53' E 008°01'0 0.0
2015-Aug-13 00:31N 43°53' E 008°01'0 0.0
2015-Aug-12 23:31N 43°53' E 008°01'0 0.0
2015-Aug-12 22:31N 43°53' E 008°01'0 0.0
2015-Aug-12 16:13N 43°53' E 008°01'0 0.0
2015-Aug-12 15:31N 43°53' E 008°01'0 0.0
2015-Aug-11 13:31N 43°53' E 008°01'  
2015-Aug-08 17:31N 43°53' E 008°01'0 0.0
2015-Aug-08 16:31N 43°53' E 008°01'0 0.0
2015-Aug-08 13:31N 43°53' E 008°01'  

Dump ship's entire track history